createdAt,value
2017-06-10T00:00:18.195Z,1008.51
2017-06-10T00:01:14.855Z,1008.46
2017-06-10T00:02:11.171Z,1008.50
2017-06-10T00:03:08.003Z,1008.42
2017-06-10T00:04:04.287Z,1008.45
2017-06-10T00:05:00.800Z,1008.48
2017-06-10T00:05:57.095Z,1008.48
2017-06-10T00:06:53.364Z,1008.50
2017-06-10T00:07:49.899Z,1008.48
2017-06-10T00:08:46.278Z,1008.56
2017-06-10T00:09:42.631Z,1008.52
2017-06-10T00:10:38.900Z,1008.52
2017-06-10T00:11:35.220Z,1008.54
2017-06-10T00:12:32.517Z,1008.48
2017-06-10T00:13:30.841Z,1008.52
2017-06-10T00:14:28.072Z,1008.47
2017-06-10T00:15:24.511Z,1008.53
2017-06-10T00:16:22.648Z,1008.52
2017-06-10T00:17:21.767Z,1008.48
2017-06-10T00:18:18.344Z,1008.51
2017-06-10T00:19:15.480Z,1008.57
2017-06-10T00:20:12.397Z,1008.50
2017-06-10T00:21:08.751Z,1008.53
2017-06-10T00:22:06.337Z,1008.54
2017-06-10T00:23:03.508Z,1008.51
2017-06-10T00:23:59.919Z,1008.55
2017-06-10T00:24:56.584Z,1008.45
2017-06-10T00:25:53.336Z,1008.54
2017-06-10T00:26:50.136Z,1008.58
2017-06-10T00:27:46.996Z,1008.56
2017-06-10T00:28:43.593Z,1008.60
2017-06-10T00:29:43.928Z,1008.63
2017-06-10T00:30:43.040Z,1008.63
2017-06-10T00:31:40.707Z,1008.68
2017-06-10T00:32:39.332Z,1008.62
2017-06-10T00:33:36.121Z,1008.69
2017-06-10T00:34:33.119Z,1008.68
2017-06-10T00:35:30.044Z,1008.72
2017-06-10T00:36:28.308Z,1008.72
2017-06-10T00:37:26.073Z,1008.60
2017-06-10T00:38:24.073Z,1008.69
2017-06-10T00:39:25.846Z,1008.74
2017-06-10T00:40:24.506Z,1008.67
2017-06-10T00:41:22.678Z,1008.74
2017-06-10T00:42:20.343Z,1008.72
2017-06-10T00:43:17.372Z,1008.76
2017-06-10T00:44:16.245Z,1008.73
2017-06-10T00:45:14.345Z,1008.78
2017-06-10T00:46:14.041Z,1008.76
2017-06-10T00:47:15.609Z,1008.80
2017-06-10T00:48:16.805Z,1008.82
2017-06-10T00:49:14.948Z,1008.78
2017-06-10T00:50:19.102Z,1008.80
2017-06-10T00:51:17.829Z,1008.76
2017-06-10T00:52:21.367Z,1008.75
2017-06-10T00:53:20.031Z,1008.75
2017-06-10T00:55:25.908Z,1008.81
2017-06-10T00:56:26.290Z,1008.86
2017-06-10T00:57:30.913Z,1008.89
2017-06-10T00:58:30.974Z,1008.81
2017-06-10T00:59:34.019Z,1008.92
2017-06-10T01:00:33.625Z,1008.89
2017-06-10T01:01:31.296Z,1008.89
2017-06-10T01:07:13.493Z,1008.88
2017-06-10T01:08:15.140Z,1008.97
2017-06-10T01:09:16.621Z,1008.92
2017-06-10T01:11:26.209Z,1009.01
2017-06-10T01:15:57.893Z,1008.97
2017-06-10T01:16:58.677Z,1008.97
2017-06-10T01:18:00.904Z,1008.89
2017-06-10T01:19:02.638Z,1009.01
2017-06-10T01:20:02.891Z,1008.98
2017-06-10T01:23:50.840Z,1008.94
2017-06-10T01:26:05.361Z,1008.97
2017-06-10T01:27:08.065Z,1008.97
2017-06-10T01:28:11.493Z,1008.94
2017-06-10T01:29:15.474Z,1008.96
2017-06-10T01:33:12.138Z,1008.91
2017-06-10T01:36:04.793Z,1009.04
2017-06-10T01:37:09.658Z,1009.06
2017-06-10T01:42:43.096Z,1009.06
2017-06-10T01:51:06.821Z,1009.13
2017-06-10T05:31:04.868Z,1010.93
2017-06-10T05:34:32.961Z,1010.95
2017-06-10T05:35:36.500Z,1010.94
2017-06-10T05:36:37.965Z,1010.98
2017-06-10T05:37:38.596Z,1010.94
2017-06-10T05:38:43.445Z,1011.00
2017-06-10T05:40:55.153Z,1010.96
2017-06-10T05:43:02.648Z,1010.96
2017-06-10T05:44:12.921Z,1011.04
2017-06-10T05:45:27.044Z,1010.94
2017-06-10T05:47:40.561Z,1010.89
2017-06-10T06:03:59.681Z,1011.02
2017-06-10T06:05:04.621Z,1011.06
2017-06-10T06:06:11.333Z,1010.96
2017-06-10T06:07:14.209Z,1010.95
2017-06-10T06:08:11.957Z,1011.00
2017-06-10T06:09:10.164Z,1010.93
2017-06-10T06:10:06.764Z,1011.01
2017-06-10T06:11:03.537Z,1010.95
2017-06-10T06:12:00.159Z,1010.97
2017-06-10T06:12:56.668Z,1010.91
2017-06-10T06:13:53.824Z,1010.99
2017-06-10T06:14:50.202Z,1010.94
2017-06-10T06:15:47.472Z,1010.96
2017-06-10T06:16:43.728Z,1011.00
2017-06-10T06:17:42.847Z,1010.96
2017-06-10T06:18:39.136Z,1011.00
2017-06-10T06:19:38.704Z,1010.97
2017-06-10T06:20:34.975Z,1010.99
2017-06-10T06:21:31.227Z,1011.06
2017-06-10T06:22:27.503Z,1011.06
2017-06-10T06:23:23.779Z,1011.11
2017-06-10T06:24:20.047Z,1011.13
2017-06-10T06:25:16.345Z,1011.12
2017-06-10T06:26:12.603Z,1011.12
2017-06-10T06:27:08.867Z,1011.14
2017-06-10T06:28:05.135Z,1011.18
2017-06-10T06:29:01.423Z,1011.15
2017-06-10T06:29:57.674Z,1011.25
2017-06-10T06:30:53.932Z,1011.24
2017-06-10T06:31:50.195Z,1011.21
2017-06-10T06:32:46.461Z,1011.28
2017-06-10T06:33:42.791Z,1011.27
2017-06-10T06:34:39.315Z,1011.28
2017-06-10T06:35:35.664Z,1011.30
2017-06-10T06:36:32.011Z,1011.27
2017-06-10T06:37:28.255Z,1011.25
2017-06-10T06:38:24.495Z,1011.29
2017-06-10T06:39:20.738Z,1011.38
2017-06-10T06:40:17.005Z,1011.32
2017-06-10T06:41:13.251Z,1011.28
2017-06-10T06:42:09.494Z,1011.42
2017-06-10T06:43:05.733Z,1011.34
2017-06-10T06:44:01.987Z,1011.37
2017-06-10T06:44:58.244Z,1011.33
2017-06-10T06:45:54.527Z,1011.35
2017-06-10T06:46:50.769Z,1011.38
2017-06-10T06:47:47.072Z,1011.29
2017-06-10T06:48:43.606Z,1011.34
2017-06-10T06:49:39.854Z,1011.36
2017-06-10T06:50:36.100Z,1011.41
2017-06-10T06:51:32.363Z,1011.34
2017-06-10T06:52:28.617Z,1011.37
2017-06-10T06:53:24.864Z,1011.31
2017-06-10T06:54:21.098Z,1011.47
2017-06-10T06:55:17.338Z,1011.44
2017-06-10T06:56:13.614Z,1011.43
2017-06-10T06:57:09.875Z,1011.41
2017-06-10T06:58:06.131Z,1011.34
2017-06-10T06:59:02.379Z,1011.47
2017-06-10T06:59:58.635Z,1011.43
2017-06-10T07:00:54.886Z,1011.43
2017-06-10T07:01:51.167Z,1011.42
2017-06-10T07:02:47.411Z,1011.45
2017-06-10T07:03:43.659Z,1011.40
2017-06-10T07:04:39.907Z,1011.42
2017-06-10T07:05:36.159Z,1011.42
2017-06-10T07:06:32.408Z,1011.40
2017-06-10T07:07:28.683Z,1011.46
2017-06-10T07:08:25.019Z,1011.43
2017-06-10T07:09:21.266Z,1011.39
2017-06-10T07:10:17.510Z,1011.43
2017-06-10T07:11:13.755Z,1011.44
2017-06-10T07:12:10.011Z,1011.43
2017-06-10T07:13:06.267Z,1011.44
2017-06-10T07:14:02.507Z,1011.45
2017-06-10T07:14:58.790Z,1011.38
2017-06-10T07:15:55.055Z,1011.39
2017-06-10T07:16:51.311Z,1011.32
2017-06-10T07:17:47.566Z,1011.34
2017-06-10T07:18:43.823Z,1011.40
2017-06-10T07:19:40.066Z,1011.37
2017-06-10T07:20:36.343Z,1011.38
2017-06-10T07:21:32.611Z,1011.41
2017-06-10T07:22:28.855Z,1011.39
2017-06-10T07:23:25.142Z,1011.41
2017-06-10T07:24:21.443Z,1011.36
2017-06-10T07:25:17.683Z,1011.34
2017-06-10T07:26:13.930Z,1011.46
2017-06-10T07:27:10.171Z,1011.47
2017-06-10T07:28:06.427Z,1011.44
2017-06-10T07:29:02.706Z,1011.51
2017-06-10T07:29:58.956Z,1011.50
2017-06-10T07:30:55.210Z,1011.54
2017-06-10T07:31:51.446Z,1011.51
2017-06-10T07:32:47.678Z,1011.54
2017-06-10T07:33:43.934Z,1011.55
2017-06-10T07:34:40.199Z,1011.57
2017-06-10T07:35:36.443Z,1011.57
2017-06-10T07:36:32.695Z,1011.57
2017-06-10T07:37:28.935Z,1011.54
2017-06-10T07:38:25.195Z,1011.56
2017-06-10T07:39:21.439Z,1011.55
2017-06-10T07:40:17.715Z,1011.58
2017-06-10T07:41:13.958Z,1011.58
2017-06-10T07:42:10.204Z,1011.51
2017-06-10T07:43:06.443Z,1011.64
2017-06-10T07:44:02.687Z,1011.54
2017-06-10T07:44:58.930Z,1011.63
2017-06-10T07:45:55.191Z,1011.61
2017-06-10T07:46:51.431Z,1011.65
2017-06-10T07:47:47.679Z,1011.63
2017-06-10T07:48:43.992Z,1011.62
2017-06-10T07:49:40.242Z,1011.69
2017-06-10T07:50:36.534Z,1011.67
2017-06-10T07:51:32.779Z,1011.60
2017-06-10T07:52:29.031Z,1011.55
2017-06-10T07:53:25.347Z,1011.68
2017-06-10T07:54:21.583Z,1011.63
2017-06-10T07:55:17.822Z,1011.61
2017-06-10T07:56:14.091Z,1011.60
2017-06-10T07:57:10.338Z,1011.67
2017-06-10T07:58:06.583Z,1011.67
2017-06-10T07:59:02.819Z,1011.70
2017-06-10T07:59:59.063Z,1011.73
2017-06-10T08:00:55.455Z,1011.73
2017-06-10T08:01:51.860Z,1011.76
2017-06-10T08:02:48.123Z,1011.73
2017-06-10T08:03:44.372Z,1011.72
2017-06-10T08:04:40.660Z,1011.82
2017-06-10T08:05:36.935Z,1011.72
2017-06-10T08:06:33.195Z,1011.78
2017-06-10T08:07:29.474Z,1011.73
2017-06-10T08:08:25.714Z,1011.72
2017-06-10T08:09:21.977Z,1011.74
2017-06-10T08:10:18.250Z,1011.72
2017-06-10T08:11:14.495Z,1011.72
2017-06-10T08:12:10.743Z,1011.76
2017-06-10T08:13:07.004Z,1011.79
2017-06-10T08:14:03.263Z,1011.71
2017-06-10T08:14:59.500Z,1011.76
2017-06-10T08:15:55.750Z,1011.79
2017-06-10T08:16:52.011Z,1011.78
2017-06-10T08:17:48.295Z,1011.77
2017-06-10T08:18:44.542Z,1011.75
2017-06-10T08:19:40.816Z,1011.78
2017-06-10T08:20:37.083Z,1011.75
2017-06-10T08:21:33.339Z,1011.79
2017-06-10T08:22:29.583Z,1011.89
2017-06-10T08:23:25.837Z,1011.82
2017-06-10T08:24:22.135Z,1011.81
2017-06-10T08:25:18.376Z,1011.80
2017-06-10T08:26:14.631Z,1011.87
2017-06-10T08:27:10.886Z,1011.81
2017-06-10T08:28:07.211Z,1011.85
2017-06-10T08:29:03.479Z,1011.81
2017-06-10T08:29:59.727Z,1011.84
2017-06-10T08:30:55.970Z,1011.78
2017-06-10T08:31:52.212Z,1011.79
2017-06-10T08:32:48.466Z,1011.80
2017-06-10T08:33:44.719Z,1011.83
2017-06-10T08:34:40.995Z,1011.74
2017-06-10T08:35:37.232Z,1011.88
2017-06-10T08:36:33.496Z,1011.86
2017-06-10T08:37:29.750Z,1011.87
2017-06-10T08:38:26.000Z,1011.88
2017-06-10T08:39:22.238Z,1011.92
2017-06-10T08:40:18.492Z,1011.90
2017-06-10T08:41:14.745Z,1011.92
2017-06-10T08:42:10.986Z,1011.93
2017-06-10T08:43:07.227Z,1011.85
2017-06-10T08:44:03.475Z,1011.91
2017-06-10T08:44:59.735Z,1011.85
2017-06-10T08:45:56.011Z,1011.88
2017-06-10T08:46:52.263Z,1011.93
2017-06-10T08:47:48.516Z,1011.84
2017-06-10T08:48:44.766Z,1011.92
2017-06-10T08:49:41.007Z,1011.89
2017-06-10T08:50:37.255Z,1011.80
2017-06-10T08:51:33.530Z,1011.84
2017-06-10T08:52:29.767Z,1011.94
2017-06-10T08:53:26.007Z,1011.86
2017-06-10T08:54:22.255Z,1011.91
2017-06-10T08:55:18.494Z,1011.88
2017-06-10T08:56:14.739Z,1011.87
2017-06-10T08:57:11.003Z,1011.73
2017-06-10T08:58:07.268Z,1011.82
2017-06-10T08:59:03.530Z,1011.84
2017-06-10T08:59:59.787Z,1011.90
2017-06-10T09:00:56.059Z,1011.85
2017-06-10T09:01:52.299Z,1011.81
2017-06-10T09:02:48.568Z,1011.84
2017-06-10T09:03:44.819Z,1011.85
2017-06-10T09:04:41.058Z,1011.82
2017-06-10T09:05:37.303Z,1011.87
2017-06-10T09:06:33.547Z,1011.82
2017-06-10T09:07:29.808Z,1011.76
2017-06-10T09:08:26.063Z,1011.76
2017-06-10T09:09:22.307Z,1011.74
2017-06-10T09:10:18.559Z,1011.71
2017-06-10T09:11:14.795Z,1011.74
2017-06-10T09:12:11.030Z,1011.76
2017-06-10T09:13:07.310Z,1011.75
2017-06-10T09:14:03.556Z,1011.76
2017-06-10T09:14:59.810Z,1011.68
2017-06-10T09:15:56.050Z,1011.70
2017-06-10T09:16:52.303Z,1011.73
2017-06-10T09:17:48.567Z,1011.74
2017-06-10T09:18:44.834Z,1011.72
2017-06-10T09:19:41.083Z,1011.76
2017-06-10T09:20:37.322Z,1011.74
2017-06-10T09:21:33.568Z,1011.76
2017-06-10T09:22:29.811Z,1011.75
2017-06-10T09:23:26.059Z,1011.81
2017-06-10T09:24:22.335Z,1011.81
2017-06-10T09:25:18.575Z,1011.72
2017-06-10T09:26:14.834Z,1011.75
2017-06-10T09:27:11.071Z,1011.69
2017-06-10T09:28:07.315Z,1011.73
2017-06-10T09:29:03.580Z,1011.72
2017-06-10T09:29:59.870Z,1011.73
2017-06-10T09:30:56.104Z,1011.73
2017-06-10T09:31:52.343Z,1011.79
2017-06-10T09:32:48.587Z,1011.64
2017-06-10T09:33:44.826Z,1011.67
2017-06-10T09:34:41.108Z,1011.70
2017-06-10T09:35:37.347Z,1011.61
2017-06-10T09:36:33.587Z,1011.58
2017-06-10T09:37:29.822Z,1011.66
2017-06-10T09:38:26.079Z,1011.51
2017-06-10T09:39:22.331Z,1011.57
2017-06-10T09:40:18.587Z,1011.41
2017-06-10T09:41:14.830Z,1011.43
2017-06-10T09:42:11.071Z,1011.44
2017-06-10T09:43:07.315Z,1011.55
2017-06-10T09:44:03.577Z,1011.55
2017-06-10T09:45:00.717Z,1011.47
2017-06-10T09:45:57.119Z,1011.50
2017-06-10T09:46:53.364Z,1011.57
2017-06-10T09:47:49.606Z,1011.48
2017-06-10T09:48:45.851Z,1011.40
2017-06-10T09:49:42.278Z,1011.44
2017-06-10T09:50:38.515Z,1011.45
2017-06-10T09:51:35.735Z,1011.41
2017-06-10T09:52:32.001Z,1011.42
2017-06-10T09:53:28.280Z,1011.49
2017-06-10T09:54:24.536Z,1011.42
2017-06-10T09:55:20.826Z,1011.55
2017-06-10T09:56:17.075Z,1011.51
2017-06-10T09:57:13.343Z,1011.56
2017-06-10T09:58:09.591Z,1011.46
2017-06-10T09:59:05.835Z,1011.51
2017-06-10T10:00:02.089Z,1011.45
2017-06-10T10:00:58.367Z,1011.41
2017-06-10T10:01:54.630Z,1011.49
2017-06-10T10:02:50.886Z,1011.47
2017-06-10T10:03:47.127Z,1011.52
2017-06-10T10:04:43.381Z,1011.46
2017-06-10T10:05:39.631Z,1011.49
2017-06-10T10:06:35.883Z,1011.51
2017-06-10T10:07:32.171Z,1011.45
2017-06-10T10:08:28.431Z,1011.48
2017-06-10T10:09:24.702Z,1011.56
2017-06-10T10:10:20.964Z,1011.52
2017-06-10T10:11:17.222Z,1011.60
2017-06-10T10:12:13.493Z,1011.56
2017-06-10T10:13:09.833Z,1011.49
2017-06-10T10:14:06.107Z,1011.47
2017-06-10T10:15:02.371Z,1011.46
2017-06-10T10:15:58.647Z,1011.47
2017-06-10T10:16:54.914Z,1011.46
2017-06-10T10:17:51.202Z,1011.48
2017-06-10T10:18:47.885Z,1011.49
2017-06-10T10:19:44.157Z,1011.55
2017-06-10T10:20:40.414Z,1011.54
2017-06-10T10:21:36.663Z,1011.49
2017-06-10T10:22:32.921Z,1011.42
2017-06-10T10:23:29.175Z,1011.55
2017-06-10T10:24:25.443Z,1011.58
2017-06-10T10:25:21.695Z,1011.49
2017-06-10T10:26:17.943Z,1011.38
2017-06-10T10:27:14.191Z,1011.43
2017-06-10T10:28:11.815Z,1011.37
2017-06-10T10:29:08.135Z,1011.36
2017-06-10T10:30:04.398Z,1011.31
2017-06-10T10:31:00.775Z,1011.37
2017-06-10T10:31:57.014Z,1011.35
2017-06-10T10:32:53.259Z,1011.33
2017-06-10T10:33:49.519Z,1011.38
2017-06-10T10:34:45.805Z,1011.28
2017-06-10T10:35:42.048Z,1011.26
2017-06-10T10:36:38.310Z,1011.37
2017-06-10T10:37:34.587Z,1011.27
2017-06-10T10:38:30.839Z,1011.31
2017-06-10T10:39:27.131Z,1011.40
2017-06-10T10:40:23.421Z,1011.34
2017-06-10T10:41:19.670Z,1011.22
2017-06-10T10:42:15.919Z,1011.29
2017-06-10T10:43:12.168Z,1011.28
2017-06-10T10:44:08.420Z,1011.29
2017-06-10T10:45:04.683Z,1011.31
2017-06-10T10:46:00.963Z,1011.23
2017-06-10T10:46:57.218Z,1011.26
2017-06-10T10:47:53.467Z,1011.25
2017-06-10T10:48:49.727Z,1011.30
2017-06-10T10:49:45.974Z,1011.23
2017-06-10T10:50:42.247Z,1011.19
2017-06-10T10:51:38.529Z,1011.26
2017-06-10T10:52:34.790Z,1011.22
2017-06-10T10:53:31.038Z,1011.25
2017-06-10T10:54:27.299Z,1011.27
2017-06-10T10:55:23.551Z,1011.15
2017-06-10T10:56:19.844Z,1011.19
2017-06-10T10:57:16.099Z,1011.20
2017-06-10T10:58:12.355Z,1011.22
2017-06-10T10:59:08.618Z,1011.21
2017-06-10T11:00:04.895Z,1011.14
2017-06-10T11:01:01.160Z,1011.14
2017-06-10T11:01:57.431Z,1011.12
2017-06-10T11:02:53.683Z,1011.13
2017-06-10T11:03:49.927Z,1011.13
2017-06-10T11:04:46.167Z,1011.13
2017-06-10T11:05:42.407Z,1011.20
2017-06-10T11:06:38.662Z,1011.10
2017-06-10T11:07:34.985Z,1011.20
2017-06-10T11:08:31.263Z,1011.13
2017-06-10T11:09:27.539Z,1011.19
2017-06-10T11:10:23.783Z,1011.16
2017-06-10T11:11:20.022Z,1011.17
2017-06-10T11:12:16.284Z,1011.10
2017-06-10T11:13:12.587Z,1011.18
2017-06-10T11:14:08.849Z,1011.16
2017-06-10T11:15:05.126Z,1011.22
2017-06-10T11:16:01.438Z,1011.21
2017-06-10T11:16:57.739Z,1011.24
2017-06-10T11:17:54.015Z,1011.12
2017-06-10T11:18:50.320Z,1011.14
2017-06-10T11:19:46.596Z,1011.09
2017-06-10T11:20:42.862Z,1011.13
2017-06-10T11:21:39.104Z,1011.11
2017-06-10T11:22:35.351Z,1011.10
2017-06-10T11:23:31.651Z,1011.07
2017-06-10T11:24:27.895Z,1011.09
2017-06-10T11:25:24.131Z,1011.10
2017-06-10T11:26:20.382Z,1011.11
2017-06-10T11:27:16.624Z,1011.09
2017-06-10T11:28:12.866Z,1011.07
2017-06-10T11:29:09.142Z,1011.12
2017-06-10T11:30:05.375Z,1011.15
2017-06-10T11:31:01.642Z,1011.15
2017-06-10T11:31:57.943Z,1011.16
2017-06-10T11:32:54.183Z,1011.00
2017-06-10T11:33:50.426Z,1011.03
2017-06-10T11:34:46.694Z,1011.00
2017-06-10T11:35:42.946Z,1011.04
2017-06-10T11:36:39.183Z,1011.04
2017-06-10T11:37:35.423Z,1010.98
2017-06-10T11:38:31.718Z,1011.01
2017-06-10T11:39:27.969Z,1011.04
2017-06-10T11:40:24.244Z,1011.12
2017-06-10T11:41:20.484Z,1011.03
2017-06-10T11:42:16.739Z,1011.08
2017-06-10T11:43:13.043Z,1011.10
2017-06-10T11:44:09.328Z,1011.18
2017-06-10T11:45:05.607Z,1011.09
2017-06-10T11:46:01.860Z,1011.09
2017-06-10T11:46:58.099Z,1011.15
2017-06-10T11:47:54.352Z,1011.11
2017-06-10T11:48:50.590Z,1011.15
2017-06-10T11:49:46.831Z,1011.15
2017-06-10T11:50:43.103Z,1011.12
2017-06-10T11:51:39.347Z,1011.15
2017-06-10T11:52:35.594Z,1011.02
2017-06-10T11:53:31.847Z,1010.97
2017-06-10T11:54:28.098Z,1011.01
2017-06-10T11:55:24.364Z,1010.90
2017-06-10T11:56:20.639Z,1010.88
2017-06-10T11:57:16.907Z,1010.91
2017-06-10T11:58:13.179Z,1010.84
2017-06-10T11:59:09.427Z,1010.88
2017-06-10T12:00:05.667Z,1010.86
2017-06-10T12:01:01.919Z,1010.86
2017-06-10T12:01:58.182Z,1010.89
2017-06-10T12:02:54.435Z,1010.88
2017-06-10T12:03:50.670Z,1010.93
2017-06-10T12:04:46.914Z,1010.91
2017-06-10T12:05:43.189Z,1010.90
2017-06-10T12:06:39.551Z,1010.90
2017-06-10T12:07:35.828Z,1010.91
2017-06-10T12:08:32.087Z,1010.91
2017-06-10T12:09:28.335Z,1010.81
2017-06-10T12:10:24.571Z,1010.91
2017-06-10T12:11:20.819Z,1010.83
2017-06-10T12:12:17.067Z,1010.79
2017-06-10T12:13:13.355Z,1010.86
2017-06-10T12:14:09.613Z,1010.83
2017-06-10T12:15:05.863Z,1010.81
2017-06-10T12:16:02.110Z,1010.90
2017-06-10T12:16:58.369Z,1010.84
2017-06-10T12:17:54.651Z,1010.87
2017-06-10T12:18:50.907Z,1010.94
2017-06-10T12:19:47.159Z,1010.95
2017-06-10T12:20:43.403Z,1010.87
2017-06-10T12:21:39.651Z,1010.82
2017-06-10T12:22:35.902Z,1010.89
2017-06-10T12:23:35.071Z,1010.87
2017-06-10T12:24:31.330Z,1010.76
2017-06-10T12:25:27.573Z,1010.77
2017-06-10T12:26:23.823Z,1010.97
2017-06-10T12:27:20.063Z,1010.93
2017-06-10T12:28:16.323Z,1010.92
2017-06-10T12:29:12.591Z,1010.85
2017-06-10T12:30:08.843Z,1010.87
2017-06-10T12:31:05.091Z,1010.81
2017-06-10T12:32:01.336Z,1010.80
2017-06-10T12:32:57.583Z,1010.85
2017-06-10T12:33:53.835Z,1010.92
2017-06-10T12:34:50.075Z,1010.85
2017-06-10T12:35:46.315Z,1010.85
2017-06-10T12:36:42.575Z,1010.80
2017-06-10T12:37:38.811Z,1010.80
2017-06-10T12:38:35.070Z,1010.67
2017-06-10T12:39:31.316Z,1010.78
2017-06-10T12:40:27.587Z,1010.69
2017-06-10T12:41:23.846Z,1010.63
2017-06-10T12:42:20.094Z,1010.66
2017-06-10T12:43:16.342Z,1010.68
2017-06-10T12:44:12.589Z,1010.62
2017-06-10T12:45:08.915Z,1010.71
2017-06-10T12:46:05.159Z,1010.72
2017-06-10T12:47:01.394Z,1010.68
2017-06-10T12:47:57.635Z,1010.77
2017-06-10T12:48:53.875Z,1010.67
2017-06-10T12:49:50.118Z,1010.60
2017-06-10T12:50:46.396Z,1010.62
2017-06-10T12:51:42.684Z,1010.66
2017-06-10T12:52:38.959Z,1010.61
2017-06-10T12:53:35.338Z,1010.62
2017-06-10T12:54:31.588Z,1010.71
2017-06-10T12:55:27.863Z,1010.66
2017-06-10T12:56:24.136Z,1010.58
2017-06-10T12:57:20.374Z,1010.73
2017-06-10T12:58:16.623Z,1010.67
2017-06-10T12:59:12.858Z,1010.63
2017-06-10T13:00:09.083Z,1010.68
2017-06-10T13:01:05.327Z,1010.63
2017-06-10T13:02:01.598Z,1010.62
2017-06-10T13:02:57.835Z,1010.58
2017-06-10T13:03:54.092Z,1010.57
2017-06-10T13:04:50.350Z,1010.54
2017-06-10T13:05:46.607Z,1010.55
2017-06-10T13:06:42.864Z,1010.54
2017-06-10T13:07:39.129Z,1010.55
2017-06-10T13:08:35.370Z,1010.46
2017-06-10T13:09:31.618Z,1010.51
2017-06-10T13:10:27.864Z,1010.52
2017-06-10T13:11:24.119Z,1010.53
2017-06-10T13:12:20.400Z,1010.45
2017-06-10T13:13:16.655Z,1010.46
2017-06-10T13:14:12.898Z,1010.49
2017-06-10T13:15:09.149Z,1010.51
2017-06-10T13:16:05.399Z,1010.53
2017-06-10T13:17:01.653Z,1010.49
2017-06-10T13:17:57.946Z,1010.42
2017-06-10T13:18:54.211Z,1010.55
2017-06-10T13:19:50.451Z,1010.38
2017-06-10T13:20:46.703Z,1010.44
2017-06-10T13:21:42.950Z,1010.40
2017-06-10T13:22:39.210Z,1010.50
2017-06-10T13:23:35.491Z,1010.40
2017-06-10T13:24:31.741Z,1010.47
2017-06-10T13:25:28.011Z,1010.49
2017-06-10T13:26:24.248Z,1010.46
2017-06-10T13:27:20.491Z,1010.43
2017-06-10T13:28:16.730Z,1010.45
2017-06-10T13:29:12.998Z,1010.40
2017-06-10T13:30:09.251Z,1010.38
2017-06-10T13:31:05.492Z,1010.48
2017-06-10T13:32:01.735Z,1010.45
2017-06-10T13:32:58.026Z,1010.33
2017-06-10T13:33:54.270Z,1010.41
2017-06-10T13:34:50.628Z,1010.39
2017-06-10T13:35:46.874Z,1010.39
2017-06-10T13:36:43.121Z,1010.25
2017-06-10T13:37:39.366Z,1010.25
2017-06-10T13:38:35.611Z,1010.34
2017-06-10T13:39:31.875Z,1010.37
2017-06-10T13:40:28.132Z,1010.36
2017-06-10T13:41:24.392Z,1010.34
2017-06-10T13:42:20.711Z,1010.36
2017-06-10T13:43:16.955Z,1010.36
2017-06-10T13:44:13.192Z,1010.42
2017-06-10T13:45:09.461Z,1010.36
2017-06-10T13:46:05.720Z,1010.40
2017-06-10T13:47:01.967Z,1010.43
2017-06-10T13:47:58.206Z,1010.42
2017-06-10T13:48:54.452Z,1010.38
2017-06-10T13:49:50.695Z,1010.39
2017-06-10T13:50:46.977Z,1010.32
2017-06-10T13:51:43.219Z,1010.35
2017-06-10T13:52:39.474Z,1010.36
2017-06-10T13:53:35.711Z,1010.26
2017-06-10T13:54:31.959Z,1010.37
2017-06-10T13:55:30.050Z,1010.36
2017-06-10T13:56:26.310Z,1010.32
2017-06-10T13:57:22.576Z,1010.29
2017-06-10T13:58:18.811Z,1010.31
2017-06-10T13:59:15.054Z,1010.38
2017-06-10T14:00:11.327Z,1010.35
2017-06-10T14:01:07.647Z,1010.28
2017-06-10T14:02:03.920Z,1010.26
2017-06-10T14:03:00.163Z,1010.21
2017-06-10T14:03:56.407Z,1010.26
2017-06-10T14:04:52.650Z,1010.28
2017-06-10T14:05:48.900Z,1010.22
2017-06-10T14:06:45.169Z,1010.20
2017-06-10T14:07:41.415Z,1010.24
2017-06-10T14:08:37.671Z,1010.18
2017-06-10T14:09:33.922Z,1010.29
2017-06-10T14:10:30.187Z,1010.25
2017-06-10T14:11:26.430Z,1010.24
2017-06-10T14:12:22.695Z,1010.12
2017-06-10T14:13:18.934Z,1010.13
2017-06-10T14:14:15.235Z,1010.06
2017-06-10T14:15:11.495Z,1010.03
2017-06-10T14:16:07.750Z,1010.04
2017-06-10T14:17:04.000Z,1010.06
2017-06-10T14:18:00.268Z,1010.08
2017-06-10T14:18:56.504Z,1010.16
2017-06-10T14:19:52.759Z,1010.06
2017-06-10T14:20:49.061Z,1010.02
2017-06-10T14:21:45.299Z,1010.05
2017-06-10T14:22:41.544Z,1010.08
2017-06-10T14:23:37.819Z,1010.11
2017-06-10T14:24:34.080Z,1010.10
2017-06-10T14:25:30.346Z,1010.03
2017-06-10T14:26:26.591Z,1010.00
2017-06-10T14:27:22.831Z,1010.06
2017-06-10T14:28:19.123Z,1010.05
2017-06-10T14:29:15.395Z,1010.10
2017-06-10T14:30:11.634Z,1010.02
2017-06-10T14:31:07.881Z,1009.96
2017-06-10T14:32:04.132Z,1009.97
2017-06-10T14:33:00.396Z,1010.04
2017-06-10T14:33:56.678Z,1010.03
2017-06-10T14:34:52.955Z,1010.02
2017-06-10T14:35:49.208Z,1010.04
2017-06-10T14:36:45.474Z,1010.13
2017-06-10T14:37:41.738Z,1010.07
2017-06-10T14:38:37.998Z,1010.03
2017-06-10T14:39:34.287Z,1010.09
2017-06-10T14:40:30.551Z,1010.05
2017-06-10T14:41:26.828Z,1010.13
2017-06-10T14:42:23.108Z,1010.03
2017-06-10T14:43:19.353Z,1010.12
2017-06-10T14:44:15.608Z,1010.04
2017-06-10T14:45:11.895Z,1010.00
2017-06-10T14:46:08.147Z,1009.97
2017-06-10T14:47:04.395Z,1010.00
2017-06-10T14:48:00.647Z,1009.95
2017-06-10T14:48:56.898Z,1009.94
2017-06-10T14:49:53.152Z,1009.87
2017-06-10T14:50:49.458Z,1009.84
2017-06-10T14:51:45.720Z,1009.97
2017-06-10T14:52:41.955Z,1009.94
2017-06-10T14:53:38.206Z,1009.99
2017-06-10T14:54:34.450Z,1009.85
2017-06-10T14:55:30.720Z,1010.01
2017-06-10T14:56:26.995Z,1009.88
2017-06-10T14:57:23.243Z,1009.91
2017-06-10T14:58:19.495Z,1009.94
2017-06-10T14:59:15.752Z,1009.91
2017-06-10T15:00:11.988Z,1009.85
2017-06-10T15:01:08.260Z,1009.88
2017-06-10T15:02:04.503Z,1009.85
2017-06-10T15:03:00.743Z,1009.85
2017-06-10T15:03:57.023Z,1009.80
2017-06-10T15:04:53.259Z,1009.89
2017-06-10T15:05:49.519Z,1009.84
2017-06-10T15:06:45.806Z,1009.95
2017-06-10T15:07:42.099Z,1009.86
2017-06-10T15:08:38.351Z,1009.79
2017-06-10T15:09:34.613Z,1009.88
2017-06-10T15:10:30.877Z,1009.90
2017-06-10T15:11:27.112Z,1009.83
2017-06-10T15:12:23.403Z,1009.78
2017-06-10T15:13:19.657Z,1009.87
2017-06-10T15:14:15.907Z,1009.82
2017-06-10T15:15:12.259Z,1009.83
2017-06-10T15:16:08.416Z,1009.75
2017-06-10T15:17:04.674Z,1009.80
2017-06-10T15:18:00.955Z,1009.83
2017-06-10T15:18:57.198Z,1009.83
2017-06-10T15:19:53.455Z,1009.86
2017-06-10T15:20:49.708Z,1009.75
2017-06-10T15:21:45.961Z,1009.72
2017-06-10T15:22:42.216Z,1009.76
2017-06-10T15:23:38.491Z,1009.81
2017-06-10T15:24:34.770Z,1009.72
2017-06-10T15:25:31.028Z,1009.79
2017-06-10T15:26:27.287Z,1009.76
2017-06-10T15:27:23.543Z,1009.63
2017-06-10T15:28:19.835Z,1009.66
2017-06-10T15:29:16.083Z,1009.66
2017-06-10T15:30:12.327Z,1009.72
2017-06-10T15:31:08.579Z,1009.73
2017-06-10T15:32:04.868Z,1009.67
2017-06-10T15:33:01.119Z,1009.65
2017-06-10T15:33:57.396Z,1009.71
2017-06-10T15:34:53.631Z,1009.63
2017-06-10T15:35:49.871Z,1009.71
2017-06-10T15:36:46.119Z,1009.72
2017-06-10T15:37:42.375Z,1009.70
2017-06-10T15:38:38.626Z,1009.68
2017-06-10T15:39:34.894Z,1009.67
2017-06-10T15:40:31.139Z,1009.63
2017-06-10T15:41:27.403Z,1009.58
2017-06-10T15:42:23.683Z,1009.64
2017-06-10T15:43:20.355Z,1009.58
2017-06-10T15:44:16.611Z,1009.60
2017-06-10T15:45:12.913Z,1009.60
2017-06-10T15:46:09.295Z,1009.60
2017-06-10T15:47:05.751Z,1009.71
2017-06-10T15:48:02.035Z,1009.64
2017-06-10T15:48:58.295Z,1009.68
2017-06-10T15:49:54.551Z,1009.61
2017-06-10T15:50:50.814Z,1009.57
2017-06-10T15:51:47.071Z,1009.57
2017-06-10T15:52:43.333Z,1009.54
2017-06-10T15:53:39.587Z,1009.47
2017-06-10T15:54:35.834Z,1009.56
2017-06-10T15:55:32.178Z,1009.60
2017-06-10T15:56:28.422Z,1009.60
2017-06-10T15:57:24.672Z,1009.60